Etusivu
METAR-TAF:

METAR-TAF

Lentoasemat :

Gran Canaria, Espanja

Gran Canarian lentoasema

Leveyspiiri: 27-56N, Pituuspiiri: 015-23W, korkeus merenpinnasta: 23 m

Tämänhetkinen sää

Tämä raportti tehtiin 15 minuuttia sitten, kello 02.00 UTC
Tuuli 4 kn pohjoisen/luoteesta
Lämpötila 20°C
Kosteus 73%
Ilmanpaine 1016 hPa
Näkyvyys 10 km tai enemmän
Muutamia pilviä 2500 ft:n korkeudessa

METAR: GCLP 270200Z 33004KT 9999 FEW025 20/15 Q1016 NOSIG

Aika: 03:15 (02:15 UTC)

Sääennuste

Tämä raportti tehtiin 5 tuntia ja 5 minuuttia sitten, kello 21.10 UTC
Ennuste voimassa 26. päivästä klo 21 UTC - 27. päivään klo 21 UTC
Tuuli 7 kn pohjoisen/luoteesta
Näkyvyys 10 km tai enemmän
Hajanaisia pilviä 3000 ft:n korkeudessa
Todennäköisyys 40% :
Ajoittain
27. päivästä klo 10 UTC - 27. päivään klo 21 UTC
tihkusadetta, sadetta

TAF: GCLP 262110Z 2621/2721 34007KT 9999 SCT030 TX26/2713Z TN20/2706Z PROB40 TEMPO 2710/2721 DZRA

Säähavainnot ja -ennusteet yli 4000 lentoasemalta (METAR- ja TAF-raportit).

Käytössä olevat sääasemat on merkitty karttaan keltaisilla ja punaisilla pisteillä.

Aseta hiiri pisteen päälle nähdäksesi sääaseman nimen.

Klikkaa sitten nähdäksesi säähavainnot ja -ennusteet.

Kartan vaihtaminen: klikkaa mustalla rastilla varustettuja vihreitä pisteitä, niin voit zoomata sisään; viivalla varustettua vihreää pistettä, niin voit zoomata ulos tai vihreitä nuolia, niin pääset viereisille kartoille.


METAR-TAF: